sensor_id;sensor_type;location;lat;lon;timestamp;P1;durP1;ratioP1;P2;durP2;ratioP2
12972;SDS011;6551;51.056;9.466;2022-07-23T00:01:32;7.30;;;5.63;;
12972;SDS011;6551;51.056;9.466;2022-07-23T00:03:58;5.57;;;4.87;;
12972;SDS011;6551;51.056;9.466;2022-07-23T00:06:24;9.73;;;8.03;;
12972;SDS011;6551;51.056;9.466;2022-07-23T00:08:50;11.00;;;8.10;;
12972;SDS011;6551;51.056;9.466;2022-07-23T00:11:16;7.77;;;6.37;;
12972;SDS011;6551;51.056;9.466;2022-07-23T00:13:42;6.33;;;4.53;;
12972;SDS011;6551;51.056;9.466;2022-07-23T00:16:08;7.07;;;4.60;;
12972;SDS011;6551;51.056;9.466;2022-07-23T00:18:34;5.90;;;4.77;;
12972;SDS011;6551;51.056;9.466;2022-07-23T00:21:00;5.70;;;4.20;;
12972;SDS011;6551;51.056;9.466;2022-07-23T00:23:25;5.00;;;4.50;;
12972;SDS011;6551;51.056;9.466;2022-07-23T00:25:52;5.60;;;4.63;;
12972;SDS011;6551;51.056;9.466;2022-07-23T00:28:18;5.63;;;4.53;;
12972;SDS011;6551;51.056;9.466;2022-07-23T00:30:44;5.67;;;4.40;;
12972;SDS011;6551;51.056;9.466;2022-07-23T00:33:10;5.87;;;4.40;;
12972;SDS011;6551;51.056;9.466;2022-07-23T00:35:37;9.90;;;6.83;;
12972;SDS011;6551;51.056;9.466;2022-07-23T00:38:05;4.83;;;3.87;;
12972;SDS011;6551;51.056;9.466;2022-07-23T00:40:36;7.40;;;5.10;;
12972;SDS011;6551;51.056;9.466;2022-07-23T00:43:03;5.77;;;4.60;;
12972;SDS011;6551;51.056;9.466;2022-07-23T00:45:29;7.50;;;6.43;;
12972;SDS011;6551;51.056;9.466;2022-07-23T00:47:55;7.57;;;5.37;;
12972;SDS011;6551;51.056;9.466;2022-07-23T00:50:24;4.87;;;4.30;;
12972;SDS011;6551;51.056;9.466;2022-07-23T00:52:50;6.70;;;5.93;;
12972;SDS011;6551;51.056;9.466;2022-07-23T00:55:16;7.90;;;6.73;;
12972;SDS011;6551;51.056;9.466;2022-07-23T00:57:42;6.17;;;4.67;;
12972;SDS011;6551;51.056;9.466;2022-07-23T01:00:09;7.57;;;4.53;;
12972;SDS011;6551;51.056;9.466;2022-07-23T01:02:38;10.17;;;5.60;;
12972;SDS011;6551;51.056;9.466;2022-07-23T01:05:05;6.80;;;5.47;;
12972;SDS011;6551;51.056;9.466;2022-07-23T01:07:32;6.77;;;4.27;;
12972;SDS011;6551;51.056;9.466;2022-07-23T01:09:58;8.03;;;5.47;;
12972;SDS011;6551;51.056;9.466;2022-07-23T01:12:25;9.27;;;6.30;;
12972;SDS011;6551;51.056;9.466;2022-07-23T01:14:54;6.30;;;4.10;;
12972;SDS011;6551;51.056;9.466;2022-07-23T01:17:21;5.73;;;5.10;;
12972;SDS011;6551;51.056;9.466;2022-07-23T01:19:47;5.17;;;4.67;;
12972;SDS011;6551;51.056;9.466;2022-07-23T01:22:13;9.60;;;8.50;;
12972;SDS011;6551;51.056;9.466;2022-07-23T01:24:42;7.90;;;5.00;;
12972;SDS011;6551;51.056;9.466;2022-07-23T01:27:08;7.33;;;4.77;;
12972;SDS011;6551;51.056;9.466;2022-07-23T01:29:33;5.47;;;4.50;;
12972;SDS011;6551;51.056;9.466;2022-07-23T01:31:59;5.43;;;4.30;;
12972;SDS011;6551;51.056;9.466;2022-07-23T01:34:25;7.57;;;5.30;;
12972;SDS011;6551;51.056;9.466;2022-07-23T01:36:51;6.13;;;4.53;;
12972;SDS011;6551;51.056;9.466;2022-07-23T01:39:16;6.23;;;4.40;;
12972;SDS011;6551;51.056;9.466;2022-07-23T01:41:42;7.70;;;5.63;;
12972;SDS011;6551;51.056;9.466;2022-07-23T01:44:07;10.60;;;7.05;;
12972;SDS011;6551;51.056;9.466;2022-07-23T01:46:33;5.43;;;4.43;;
12972;SDS011;6551;51.056;9.466;2022-07-23T01:48:59;4.67;;;3.90;;
12972;SDS011;6551;51.056;9.466;2022-07-23T01:51:24;5.90;;;4.63;;
12972;SDS011;6551;51.056;9.466;2022-07-23T01:53:50;6.93;;;4.23;;
12972;SDS011;6551;51.056;9.466;2022-07-23T01:56:16;6.07;;;5.07;;
12972;SDS011;6551;51.056;9.466;2022-07-23T01:58:43;8.43;;;6.23;;
12972;SDS011;6551;51.056;9.466;2022-07-23T02:01:09;8.97;;;5.73;;
12972;SDS011;6551;51.056;9.466;2022-07-23T02:03:35;8.63;;;7.43;;
12972;SDS011;6551;51.056;9.466;2022-07-23T02:06:00;11.33;;;10.00;;
12972;SDS011;6551;51.056;9.466;2022-07-23T02:08:26;7.23;;;6.07;;
12972;SDS011;6551;51.056;9.466;2022-07-23T02:10:51;9.10;;;7.23;;
12972;SDS011;6551;51.056;9.466;2022-07-23T02:13:18;5.27;;;4.60;;
12972;SDS011;6551;51.056;9.466;2022-07-23T02:15:44;7.67;;;5.53;;
12972;SDS011;6551;51.056;9.466;2022-07-23T02:18:12;5.65;;;4.47;;
12972;SDS011;6551;51.056;9.466;2022-07-23T02:20:37;9.67;;;7.57;;
12972;SDS011;6551;51.056;9.466;2022-07-23T02:23:03;11.57;;;7.73;;
12972;SDS011;6551;51.056;9.466;2022-07-23T02:25:29;9.80;;;8.47;;
12972;SDS011;6551;51.056;9.466;2022-07-23T02:27:55;10.30;;;8.17;;
12972;SDS011;6551;51.056;9.466;2022-07-23T02:30:20;11.17;;;8.97;;
12972;SDS011;6551;51.056;9.466;2022-07-23T02:32:46;11.87;;;10.37;;
12972;SDS011;6551;51.056;9.466;2022-07-23T02:35:12;13.27;;;10.77;;
12972;SDS011;6551;51.056;9.466;2022-07-23T02:37:38;8.53;;;7.37;;
12972;SDS011;6551;51.056;9.466;2022-07-23T02:40:03;12.30;;;10.97;;
12972;SDS011;6551;51.056;9.466;2022-07-23T02:42:30;13.73;;;9.77;;
12972;SDS011;6551;51.056;9.466;2022-07-23T02:44:56;15.47;;;10.93;;
12972;SDS011;6551;51.056;9.466;2022-07-23T02:47:21;10.23;;;8.43;;
12972;SDS011;6551;51.056;9.466;2022-07-23T02:49:47;10.73;;;8.50;;
12972;SDS011;6551;51.056;9.466;2022-07-23T02:52:12;13.27;;;10.87;;
12972;SDS011;6551;51.056;9.466;2022-07-23T02:54:38;11.53;;;9.90;;
12972;SDS011;6551;51.056;9.466;2022-07-23T02:57:04;14.47;;;11.43;;
12972;SDS011;6551;51.056;9.466;2022-07-23T02:59:30;13.77;;;9.63;;
12972;SDS011;6551;51.056;9.466;2022-07-23T03:01:55;12.17;;;10.93;;
12972;SDS011;6551;51.056;9.466;2022-07-23T03:04:21;10.33;;;8.87;;
12972;SDS011;6551;51.056;9.466;2022-07-23T03:06:46;11.20;;;10.00;;
12972;SDS011;6551;51.056;9.466;2022-07-23T03:09:12;15.37;;;11.47;;
12972;SDS011;6551;51.056;9.466;2022-07-23T03:11:38;8.53;;;6.77;;
12972;SDS011;6551;51.056;9.466;2022-07-23T03:14:03;12.80;;;9.53;;
12972;SDS011;6551;51.056;9.466;2022-07-23T03:16:29;12.87;;;9.67;;
12972;SDS011;6551;51.056;9.466;2022-07-23T03:18:55;13.33;;;11.00;;
12972;SDS011;6551;51.056;9.466;2022-07-23T03:21:20;17.63;;;11.50;;
12972;SDS011;6551;51.056;9.466;2022-07-23T03:23:46;11.37;;;8.13;;
12972;SDS011;6551;51.056;9.466;2022-07-23T03:26:12;13.87;;;11.43;;
12972;SDS011;6551;51.056;9.466;2022-07-23T03:28:37;10.33;;;8.93;;
12972;SDS011;6551;51.056;9.466;2022-07-23T03:31:03;16.67;;;9.43;;
12972;SDS011;6551;51.056;9.466;2022-07-23T03:33:29;14.13;;;10.77;;
12972;SDS011;6551;51.056;9.466;2022-07-23T03:35:54;10.33;;;8.07;;
12972;SDS011;6551;51.056;9.466;2022-07-23T03:38:20;11.53;;;10.07;;
12972;SDS011;6551;51.056;9.466;2022-07-23T03:40:46;22.10;;;12.17;;
12972;SDS011;6551;51.056;9.466;2022-07-23T03:43:11;14.57;;;11.17;;
12972;SDS011;6551;51.056;9.466;2022-07-23T03:45:37;13.37;;;9.23;;
12972;SDS011;6551;51.056;9.466;2022-07-23T03:48:03;13.33;;;10.63;;
12972;SDS011;6551;51.056;9.466;2022-07-23T03:50:28;10.03;;;7.90;;
12972;SDS011;6551;51.056;9.466;2022-07-23T03:52:54;12.93;;;8.67;;
12972;SDS011;6551;51.056;9.466;2022-07-23T03:55:20;16.83;;;10.47;;
12972;SDS011;6551;51.056;9.466;2022-07-23T03:57:45;11.07;;;7.30;;
12972;SDS011;6551;51.056;9.466;2022-07-23T04:00:11;12.50;;;8.80;;
12972;SDS011;6551;51.056;9.466;2022-07-23T04:02:38;16.20;;;10.87;;
12972;SDS011;6551;51.056;9.466;2022-07-23T04:05:04;16.43;;;10.17;;
12972;SDS011;6551;51.056;9.466;2022-07-23T04:07:31;12.33;;;8.67;;
12972;SDS011;6551;51.056;9.466;2022-07-23T04:09:57;9.17;;;6.63;;
12972;SDS011;6551;51.056;9.466;2022-07-23T04:12:23;11.97;;;9.40;;
12972;SDS011;6551;51.056;9.466;2022-07-23T04:14:49;9.50;;;7.50;;
12972;SDS011;6551;51.056;9.466;2022-07-23T04:17:15;6.53;;;5.47;;
12972;SDS011;6551;51.056;9.466;2022-07-23T04:19:41;9.03;;;6.67;;
12972;SDS011;6551;51.056;9.466;2022-07-23T04:22:08;14.90;;;10.43;;
12972;SDS011;6551;51.056;9.466;2022-07-23T04:24:36;16.93;;;11.07;;
12972;SDS011;6551;51.056;9.466;2022-07-23T04:27:02;11.23;;;7.80;;
12972;SDS011;6551;51.056;9.466;2022-07-23T04:29:28;9.10;;;7.50;;
12972;SDS011;6551;51.056;9.466;2022-07-23T04:31:54;14.33;;;10.37;;
12972;SDS011;6551;51.056;9.466;2022-07-23T04:34:20;15.97;;;9.37;;
12972;SDS011;6551;51.056;9.466;2022-07-23T04:36:46;12.93;;;9.20;;
12972;SDS011;6551;51.056;9.466;2022-07-23T04:39:12;8.97;;;6.00;;
12972;SDS011;6551;51.056;9.466;2022-07-23T04:41:38;10.73;;;6.97;;
12972;SDS011;6551;51.056;9.466;2022-07-23T04:44:03;14.43;;;9.93;;
12972;SDS011;6551;51.056;9.466;2022-07-23T04:46:29;14.93;;;8.93;;
12972;SDS011;6551;51.056;9.466;2022-07-23T04:48:55;7.63;;;5.50;;
12972;SDS011;6551;51.056;9.466;2022-07-23T04:51:20;8.13;;;6.93;;
12972;SDS011;6551;51.056;9.466;2022-07-23T04:53:46;8.53;;;5.53;;
12972;SDS011;6551;51.056;9.466;2022-07-23T04:56:12;12.50;;;6.53;;
12972;SDS011;6551;51.056;9.466;2022-07-23T04:58:37;10.37;;;6.90;;
12972;SDS011;6551;51.056;9.466;2022-07-23T05:01:03;11.77;;;8.07;;
12972;SDS011;6551;51.056;9.466;2022-07-23T05:03:29;14.47;;;7.87;;
12972;SDS011;6551;51.056;9.466;2022-07-23T05:05:55;13.83;;;8.17;;
12972;SDS011;6551;51.056;9.466;2022-07-23T05:08:21;7.67;;;6.10;;
12972;SDS011;6551;51.056;9.466;2022-07-23T05:10:47;15.00;;;8.40;;
12972;SDS011;6551;51.056;9.466;2022-07-23T05:13:16;13.73;;;9.30;;
12972;SDS011;6551;51.056;9.466;2022-07-23T05:15:43;11.40;;;7.80;;
12972;SDS011;6551;51.056;9.466;2022-07-23T05:18:10;5.47;;;4.93;;
12972;SDS011;6551;51.056;9.466;2022-07-23T05:20:36;8.23;;;6.27;;
12972;SDS011;6551;51.056;9.466;2022-07-23T05:23:02;5.63;;;4.07;;
12972;SDS011;6551;51.056;9.466;2022-07-23T05:25:28;11.87;;;8.87;;
12972;SDS011;6551;51.056;9.466;2022-07-23T05:27:54;12.90;;;6.43;;
12972;SDS011;6551;51.056;9.466;2022-07-23T05:30:19;8.70;;;5.17;;
12972;SDS011;6551;51.056;9.466;2022-07-23T05:32:45;6.40;;;4.67;;
12972;SDS011;6551;51.056;9.466;2022-07-23T05:35:11;8.53;;;7.07;;
12972;SDS011;6551;51.056;9.466;2022-07-23T05:37:37;7.83;;;5.30;;
12972;SDS011;6551;51.056;9.466;2022-07-23T05:40:03;13.30;;;7.20;;
12972;SDS011;6551;51.056;9.466;2022-07-23T05:42:32;11.57;;;7.90;;
12972;SDS011;6551;51.056;9.466;2022-07-23T05:44:59;10.43;;;7.47;;
12972;SDS011;6551;51.056;9.466;2022-07-23T05:47:25;10.73;;;6.27;;
12972;SDS011;6551;51.056;9.466;2022-07-23T05:49:51;10.67;;;5.37;;
12972;SDS011;6551;51.056;9.466;2022-07-23T05:52:16;10.07;;;6.03;;
12972;SDS011;6551;51.056;9.466;2022-07-23T05:54:42;11.77;;;6.57;;
12972;SDS011;6551;51.056;9.466;2022-07-23T05:57:07;9.93;;;5.95;;
12972;SDS011;6551;51.056;9.466;2022-07-23T05:59:33;13.23;;;8.20;;
12972;SDS011;6551;51.056;9.466;2022-07-23T06:01:59;9.75;;;6.70;;
12972;SDS011;6551;51.056;9.466;2022-07-23T06:04:24;14.02;;;6.38;;
12972;SDS011;6551;51.056;9.466;2022-07-23T06:06:50;12.45;;;6.65;;
12972;SDS011;6551;51.056;9.466;2022-07-23T06:09:16;12.52;;;7.63;;
12972;SDS011;6551;51.056;9.466;2022-07-23T06:11:43;9.55;;;5.88;;
12972;SDS011;6551;51.056;9.466;2022-07-23T06:14:08;8.45;;;5.60;;
12972;SDS011;6551;51.056;9.466;2022-07-23T06:16:34;11.30;;;6.47;;
12972;SDS011;6551;51.056;9.466;2022-07-23T06:19:00;12.27;;;6.20;;
12972;SDS011;6551;51.056;9.466;2022-07-23T06:21:26;8.30;;;5.57;;
12972;SDS011;6551;51.056;9.466;2022-07-23T06:23:51;14.48;;;7.13;;
12972;SDS011;6551;51.056;9.466;2022-07-23T06:26:17;7.13;;;5.43;;
12972;SDS011;6551;51.056;9.466;2022-07-23T06:28:42;9.20;;;5.18;;
12972;SDS011;6551;51.056;9.466;2022-07-23T06:31:08;11.10;;;5.43;;
12972;SDS011;6551;51.056;9.466;2022-07-23T06:33:34;10.20;;;6.10;;
12972;SDS011;6551;51.056;9.466;2022-07-23T06:35:59;10.30;;;5.60;;
12972;SDS011;6551;51.056;9.466;2022-07-23T06:38:25;9.73;;;5.97;;
12972;SDS011;6551;51.056;9.466;2022-07-23T06:40:51;13.82;;;6.10;;
12972;SDS011;6551;51.056;9.466;2022-07-23T06:43:17;9.77;;;6.78;;
12972;SDS011;6551;51.056;9.466;2022-07-23T06:45:43;9.38;;;6.32;;
12972;SDS011;6551;51.056;9.466;2022-07-23T06:48:08;9.73;;;6.68;;
12972;SDS011;6551;51.056;9.466;2022-07-23T06:50:34;13.98;;;7.20;;
12972;SDS011;6551;51.056;9.466;2022-07-23T06:53:00;10.68;;;6.05;;
12972;SDS011;6551;51.056;9.466;2022-07-23T06:55:26;9.00;;;5.50;;
12972;SDS011;6551;51.056;9.466;2022-07-23T06:57:51;12.05;;;8.10;;
12972;SDS011;6551;51.056;9.466;2022-07-23T07:00:17;10.25;;;6.40;;
12972;SDS011;6551;51.056;9.466;2022-07-23T07:02:43;10.88;;;6.40;;
12972;SDS011;6551;51.056;9.466;2022-07-23T07:05:09;6.75;;;4.78;;
12972;SDS011;6551;51.056;9.466;2022-07-23T07:07:34;10.48;;;5.85;;
12972;SDS011;6551;51.056;9.466;2022-07-23T07:10:01;7.93;;;5.13;;
12972;SDS011;6551;51.056;9.466;2022-07-23T07:12:28;10.27;;;5.28;;
12972;SDS011;6551;51.056;9.466;2022-07-23T07:14:54;9.95;;;6.60;;
12972;SDS011;6551;51.056;9.466;2022-07-23T07:17:19;8.93;;;6.97;;
12972;SDS011;6551;51.056;9.466;2022-07-23T07:19:45;5.95;;;4.53;;
12972;SDS011;6551;51.056;9.466;2022-07-23T07:22:11;8.68;;;6.53;;
12972;SDS011;6551;51.056;9.466;2022-07-23T07:24:37;10.13;;;7.00;;
12972;SDS011;6551;51.056;9.466;2022-07-23T07:27:02;10.70;;;5.90;;
12972;SDS011;6551;51.056;9.466;2022-07-23T07:29:28;8.20;;;4.75;;
12972;SDS011;6551;51.056;9.466;2022-07-23T07:31:54;10.60;;;7.65;;
12972;SDS011;6551;51.056;9.466;2022-07-23T07:34:20;10.23;;;5.55;;
12972;SDS011;6551;51.056;9.466;2022-07-23T07:36:45;7.45;;;4.80;;
12972;SDS011;6551;51.056;9.466;2022-07-23T07:39:11;8.95;;;5.85;;
12972;SDS011;6551;51.056;9.466;2022-07-23T07:41:37;10.02;;;7.50;;
12972;SDS011;6551;51.056;9.466;2022-07-23T07:44:03;10.40;;;6.65;;
12972;SDS011;6551;51.056;9.466;2022-07-23T07:46:29;13.40;;;6.15;;
12972;SDS011;6551;51.056;9.466;2022-07-23T07:48:55;10.48;;;5.07;;
12972;SDS011;6551;51.056;9.466;2022-07-23T07:51:21;6.50;;;5.15;;
12972;SDS011;6551;51.056;9.466;2022-07-23T07:53:46;10.85;;;6.55;;
12972;SDS011;6551;51.056;9.466;2022-07-23T07:56:12;7.50;;;4.95;;
12972;SDS011;6551;51.056;9.466;2022-07-23T07:58:39;9.15;;;6.70;;
12972;SDS011;6551;51.056;9.466;2022-07-23T08:01:05;11.82;;;8.10;;
12972;SDS011;6551;51.056;9.466;2022-07-23T08:03:31;8.52;;;7.05;;
12972;SDS011;6551;51.056;9.466;2022-07-23T08:05:57;9.05;;;6.88;;
12972;SDS011;6551;51.056;9.466;2022-07-23T08:08:23;10.82;;;7.55;;
12972;SDS011;6551;51.056;9.466;2022-07-23T08:10:49;8.77;;;6.95;;
12972;SDS011;6551;51.056;9.466;2022-07-23T08:13:15;9.60;;;6.57;;
12972;SDS011;6551;51.056;9.466;2022-07-23T08:15:41;9.27;;;7.30;;
12972;SDS011;6551;51.056;9.466;2022-07-23T08:18:08;10.25;;;6.97;;
12972;SDS011;6551;51.056;9.466;2022-07-23T08:20:34;6.72;;;5.80;;
12972;SDS011;6551;51.056;9.466;2022-07-23T08:23:04;8.25;;;6.22;;
12972;SDS011;6551;51.056;9.466;2022-07-23T08:25:36;6.22;;;5.35;;
12972;SDS011;6551;51.056;9.466;2022-07-23T08:28:05;7.88;;;5.38;;
12972;SDS011;6551;51.056;9.466;2022-07-23T08:30:34;10.05;;;6.32;;
12972;SDS011;6551;51.056;9.466;2022-07-23T08:33:03;6.63;;;5.90;;
12972;SDS011;6551;51.056;9.466;2022-07-23T08:35:37;8.23;;;5.50;;
12972;SDS011;6551;51.056;9.466;2022-07-23T08:38:07;9.32;;;5.88;;
12972;SDS011;6551;51.056;9.466;2022-07-23T08:40:36;10.60;;;6.40;;
12972;SDS011;6551;51.056;9.466;2022-07-23T08:43:05;6.20;;;5.60;;
12972;SDS011;6551;51.056;9.466;2022-07-23T08:45:37;8.60;;;6.15;;
12972;SDS011;6551;51.056;9.466;2022-07-23T08:48:11;7.32;;;5.90;;
12972;SDS011;6551;51.056;9.466;2022-07-23T08:50:45;8.38;;;6.20;;
12972;SDS011;6551;51.056;9.466;2022-07-23T08:53:18;8.52;;;6.45;;
12972;SDS011;6551;51.056;9.466;2022-07-23T08:55:47;9.00;;;6.50;;
12972;SDS011;6551;51.056;9.466;2022-07-23T08:58:23;9.45;;;6.85;;
12972;SDS011;6551;51.056;9.466;2022-07-23T09:00:50;6.47;;;5.57;;
12972;SDS011;6551;51.056;9.466;2022-07-23T09:05:45;8.00;;;6.40;;
12972;SDS011;6551;51.056;9.466;2022-07-23T09:08:12;9.63;;;6.60;;
12972;SDS011;6551;51.056;9.466;2022-07-23T09:10:46;7.78;;;6.65;;
12972;SDS011;6551;51.056;9.466;2022-07-23T09:13:36;9.70;;;7.00;;
12972;SDS011;6551;51.056;9.466;2022-07-23T09:16:17;10.27;;;6.15;;
12972;SDS011;6551;51.056;9.466;2022-07-23T09:19:11;8.52;;;6.55;;
12972;SDS011;6551;51.056;9.466;2022-07-23T09:21:38;10.35;;;6.70;;
12972;SDS011;6551;51.056;9.466;2022-07-23T09:24:08;12.82;;;7.45;;
12972;SDS011;6551;51.056;9.466;2022-07-23T09:29:18;8.32;;;7.45;;
12972;SDS011;6551;51.056;9.466;2022-07-23T09:36:56;11.02;;;7.20;;
12972;SDS011;6551;51.056;9.466;2022-07-23T09:39:33;5.95;;;5.32;;
12972;SDS011;6551;51.056;9.466;2022-07-23T09:42:16;8.40;;;6.78;;
12972;SDS011;6551;51.056;9.466;2022-07-23T09:44:42;6.93;;;6.00;;
12972;SDS011;6551;51.056;9.466;2022-07-23T09:47:11;7.50;;;5.35;;
12972;SDS011;6551;51.056;9.466;2022-07-23T09:49:37;7.97;;;5.75;;
12972;SDS011;6551;51.056;9.466;2022-07-23T09:52:05;6.13;;;5.50;;
12972;SDS011;6551;51.056;9.466;2022-07-23T09:54:33;10.02;;;6.28;;
12972;SDS011;6551;51.056;9.466;2022-07-23T09:57:08;12.80;;;9.95;;
12972;SDS011;6551;51.056;9.466;2022-07-23T09:59:40;9.48;;;5.72;;
12972;SDS011;6551;51.056;9.466;2022-07-23T10:02:08;8.02;;;6.10;;
12972;SDS011;6551;51.056;9.466;2022-07-23T10:04:37;8.68;;;6.45;;
12972;SDS011;6551;51.056;9.466;2022-07-23T10:07:05;17.13;;;11.75;;
12972;SDS011;6551;51.056;9.466;2022-07-23T10:09:38;10.25;;;8.10;;
12972;SDS011;6551;51.056;9.466;2022-07-23T10:12:10;10.50;;;6.30;;
12972;SDS011;6551;51.056;9.466;2022-07-23T10:15:02;10.45;;;7.63;;
12972;SDS011;6551;51.056;9.466;2022-07-23T10:17:32;8.30;;;5.78;;
12972;SDS011;6551;51.056;9.466;2022-07-23T10:19:58;9.98;;;6.82;;
12972;SDS011;6551;51.056;9.466;2022-07-23T10:22:25;8.27;;;6.00;;
12972;SDS011;6551;51.056;9.466;2022-07-23T10:25:15;6.95;;;5.82;;
12972;SDS011;6551;51.056;9.466;2022-07-23T10:31:07;6.57;;;5.88;;
12972;SDS011;6551;51.056;9.466;2022-07-23T10:33:41;12.25;;;7.05;;
12972;SDS011;6551;51.056;9.466;2022-07-23T10:39:22;5.78;;;5.20;;
12972;SDS011;6551;51.056;9.466;2022-07-23T10:42:11;4.90;;;4.07;;
12972;SDS011;6551;51.056;9.466;2022-07-23T10:44:43;5.13;;;4.63;;
12972;SDS011;6551;51.056;9.466;2022-07-23T10:47:12;7.03;;;4.95;;
12972;SDS011;6551;51.056;9.466;2022-07-23T10:50:44;7.13;;;4.50;;
12972;SDS011;6551;51.056;9.466;2022-07-23T10:58:00;5.03;;;3.53;;
12972;SDS011;6551;51.056;9.466;2022-07-23T11:00:29;5.63;;;3.88;;
12972;SDS011;6551;51.056;9.466;2022-07-23T11:03:00;5.00;;;3.30;;
12972;SDS011;6551;51.056;9.466;2022-07-23T11:05:41;4.20;;;3.80;;
12972;SDS011;6551;51.056;9.466;2022-07-23T11:13:36;5.35;;;2.60;;
12972;SDS011;6551;51.056;9.466;2022-07-23T11:26:57;3.75;;;2.63;;
12972;SDS011;6551;51.056;9.466;2022-07-23T11:34:49;3.40;;;2.53;;
12972;SDS011;6551;51.056;9.466;2022-07-23T11:37:28;6.50;;;2.80;;
12972;SDS011;6551;51.056;9.466;2022-07-23T11:40:06;3.40;;;2.38;;
12972;SDS011;6551;51.056;9.466;2022-07-23T11:42:38;3.58;;;2.80;;
12972;SDS011;6551;51.056;9.466;2022-07-23T11:45:15;3.75;;;2.50;;
12972;SDS011;6551;51.056;9.466;2022-07-23T11:47:41;3.75;;;2.60;;
12972;SDS011;6551;51.056;9.466;2022-07-23T11:50:07;5.05;;;2.58;;
12972;SDS011;6551;51.056;9.466;2022-07-23T11:52:34;3.47;;;2.20;;
12972;SDS011;6551;51.056;9.466;2022-07-23T11:55:04;2.10;;;1.90;;
12972;SDS011;6551;51.056;9.466;2022-07-23T11:57:35;2.15;;;1.95;;
12972;SDS011;6551;51.056;9.466;2022-07-23T12:00:16;5.15;;;2.50;;
12972;SDS011;6551;51.056;9.466;2022-07-23T12:02:48;4.10;;;2.42;;
12972;SDS011;6551;51.056;9.466;2022-07-23T12:05:26;2.63;;;2.28;;
12972;SDS011;6551;51.056;9.466;2022-07-23T12:07:55;3.70;;;2.50;;
12972;SDS011;6551;51.056;9.466;2022-07-23T12:10:25;3.13;;;2.20;;
12972;SDS011;6551;51.056;9.466;2022-07-23T12:13:01;3.88;;;2.25;;
12972;SDS011;6551;51.056;9.466;2022-07-23T12:15:45;4.35;;;2.47;;
12972;SDS011;6551;51.056;9.466;2022-07-23T12:18:24;3.13;;;2.53;;
12972;SDS011;6551;51.056;9.466;2022-07-23T12:20:52;3.22;;;2.45;;
12972;SDS011;6551;51.056;9.466;2022-07-23T12:23:22;6.38;;;2.75;;
12972;SDS011;6551;51.056;9.466;2022-07-23T12:25:50;5.85;;;3.25;;
12972;SDS011;6551;51.056;9.466;2022-07-23T12:28:19;4.18;;;2.95;;
12972;SDS011;6551;51.056;9.466;2022-07-23T12:30:53;4.63;;;2.90;;
12972;SDS011;6551;51.056;9.466;2022-07-23T12:33:21;4.75;;;3.17;;
12972;SDS011;6551;51.056;9.466;2022-07-23T12:35:54;3.42;;;2.80;;
12972;SDS011;6551;51.056;9.466;2022-07-23T12:38:24;3.15;;;2.55;;
12972;SDS011;6551;51.056;9.466;2022-07-23T12:40:53;2.90;;;2.20;;
12972;SDS011;6551;51.056;9.466;2022-07-23T12:43:40;3.83;;;2.60;;
12972;SDS011;6551;51.056;9.466;2022-07-23T12:46:09;3.60;;;2.88;;
12972;SDS011;6551;51.056;9.466;2022-07-23T12:51:15;2.50;;;2.30;;
12972;SDS011;6551;51.056;9.466;2022-07-23T12:53:46;4.28;;;3.25;;
12972;SDS011;6551;51.056;9.466;2022-07-23T12:56:14;3.78;;;2.78;;
12972;SDS011;6551;51.056;9.466;2022-07-23T12:58:44;3.22;;;2.60;;
12972;SDS011;6551;51.056;9.466;2022-07-23T13:06:46;4.68;;;2.53;;
12972;SDS011;6551;51.056;9.466;2022-07-23T13:09:22;4.38;;;2.80;;
12972;SDS011;6551;51.056;9.466;2022-07-23T13:11:51;7.18;;;3.13;;
12972;SDS011;6551;51.056;9.466;2022-07-23T13:14:20;2.92;;;2.67;;
12972;SDS011;6551;51.056;9.466;2022-07-23T13:16:47;3.25;;;2.70;;
12972;SDS011;6551;51.056;9.466;2022-07-23T13:19:15;6.07;;;3.17;;
12972;SDS011;6551;51.056;9.466;2022-07-23T13:21:42;4.47;;;3.15;;
12972;SDS011;6551;51.056;9.466;2022-07-23T13:24:09;5.20;;;3.03;;
12972;SDS011;6551;51.056;9.466;2022-07-23T13:26:36;3.13;;;2.83;;
12972;SDS011;6551;51.056;9.466;2022-07-23T13:29:03;4.40;;;2.80;;
12972;SDS011;6551;51.056;9.466;2022-07-23T13:31:30;4.32;;;2.60;;
12972;SDS011;6551;51.056;9.466;2022-07-23T13:33:55;5.57;;;3.28;;
12972;SDS011;6551;51.056;9.466;2022-07-23T13:36:22;6.75;;;3.30;;
12972;SDS011;6551;51.056;9.466;2022-07-23T13:38:47;4.18;;;2.92;;
12972;SDS011;6551;51.056;9.466;2022-07-23T13:41:13;4.28;;;3.00;;
12972;SDS011;6551;51.056;9.466;2022-07-23T13:43:41;4.35;;;3.10;;
12972;SDS011;6551;51.056;9.466;2022-07-23T13:46:07;5.28;;;3.20;;
12972;SDS011;6551;51.056;9.466;2022-07-23T13:48:33;6.10;;;3.10;;
12972;SDS011;6551;51.056;9.466;2022-07-23T13:50:58;5.18;;;3.55;;
12972;SDS011;6551;51.056;9.466;2022-07-23T13:53:24;3.97;;;2.92;;
12972;SDS011;6551;51.056;9.466;2022-07-23T13:55:51;4.57;;;2.70;;
12972;SDS011;6551;51.056;9.466;2022-07-23T13:58:18;4.50;;;3.03;;
12972;SDS011;6551;51.056;9.466;2022-07-23T14:00:46;4.45;;;3.22;;
12972;SDS011;6551;51.056;9.466;2022-07-23T14:03:18;3.05;;;2.75;;
12972;SDS011;6551;51.056;9.466;2022-07-23T14:05:44;4.30;;;3.08;;
12972;SDS011;6551;51.056;9.466;2022-07-23T14:08:10;5.68;;;2.80;;
12972;SDS011;6551;51.056;9.466;2022-07-23T14:10:36;5.05;;;3.17;;
12972;SDS011;6551;51.056;9.466;2022-07-23T14:13:02;4.45;;;3.13;;
12972;SDS011;6551;51.056;9.466;2022-07-23T14:15:29;6.05;;;2.85;;
12972;SDS011;6551;51.056;9.466;2022-07-23T14:17:57;4.85;;;2.90;;
12972;SDS011;6551;51.056;9.466;2022-07-23T14:20:23;6.97;;;2.75;;
12972;SDS011;6551;51.056;9.466;2022-07-23T14:22:50;5.60;;;3.10;;
12972;SDS011;6551;51.056;9.466;2022-07-23T14:25:16;2.83;;;2.60;;
12972;SDS011;6551;51.056;9.466;2022-07-23T14:27:44;3.50;;;2.83;;
12972;SDS011;6551;51.056;9.466;2022-07-23T14:30:10;4.43;;;2.97;;
12972;SDS011;6551;51.056;9.466;2022-07-23T14:32:37;3.33;;;2.78;;
12972;SDS011;6551;51.056;9.466;2022-07-23T14:35:04;5.28;;;2.80;;
12972;SDS011;6551;51.056;9.466;2022-07-23T14:37:32;4.53;;;3.05;;
12972;SDS011;6551;51.056;9.466;2022-07-23T14:39:58;4.63;;;3.13;;
12972;SDS011;6551;51.056;9.466;2022-07-23T14:42:24;4.47;;;3.00;;
12972;SDS011;6551;51.056;9.466;2022-07-23T14:44:50;5.53;;;3.03;;
12972;SDS011;6551;51.056;9.466;2022-07-23T14:47:15;3.13;;;2.50;;
12972;SDS011;6551;51.056;9.466;2022-07-23T14:49:41;3.55;;;2.65;;
12972;SDS011;6551;51.056;9.466;2022-07-23T14:52:07;4.93;;;3.00;;
12972;SDS011;6551;51.056;9.466;2022-07-23T14:54:33;8.30;;;2.78;;
12972;SDS011;6551;51.056;9.466;2022-07-23T14:56:59;3.10;;;2.72;;
12972;SDS011;6551;51.056;9.466;2022-07-23T14:59:28;3.92;;;2.88;;
12972;SDS011;6551;51.056;9.466;2022-07-23T15:01:55;4.10;;;2.97;;
12972;SDS011;6551;51.056;9.466;2022-07-23T15:04:22;4.15;;;3.40;;
12972;SDS011;6551;51.056;9.466;2022-07-23T15:06:49;6.00;;;3.17;;
12972;SDS011;6551;51.056;9.466;2022-07-23T15:09:15;4.00;;;3.08;;
12972;SDS011;6551;51.056;9.466;2022-07-23T15:11:41;3.70;;;3.20;;
12972;SDS011;6551;51.056;9.466;2022-07-23T15:14:07;7.13;;;3.13;;
12972;SDS011;6551;51.056;9.466;2022-07-23T15:16:34;6.85;;;3.38;;
12972;SDS011;6551;51.056;9.466;2022-07-23T15:19:01;6.60;;;3.30;;
12972;SDS011;6551;51.056;9.466;2022-07-23T15:21:28;3.97;;;3.50;;
12972;SDS011;6551;51.056;9.466;2022-07-23T15:23:55;4.72;;;3.08;;
12972;SDS011;6551;51.056;9.466;2022-07-23T15:26:23;5.03;;;3.40;;
12972;SDS011;6551;51.056;9.466;2022-07-23T15:28:53;4.32;;;3.40;;
12972;SDS011;6551;51.056;9.466;2022-07-23T15:31:19;6.63;;;3.10;;
12972;SDS011;6551;51.056;9.466;2022-07-23T15:33:46;3.50;;;3.00;;
12972;SDS011;6551;51.056;9.466;2022-07-23T15:36:12;5.70;;;3.60;;
12972;SDS011;6551;51.056;9.466;2022-07-23T15:38:37;6.07;;;3.40;;
12972;SDS011;6551;51.056;9.466;2022-07-23T15:41:03;4.72;;;3.25;;
12972;SDS011;6551;51.056;9.466;2022-07-23T15:43:29;5.10;;;3.28;;
12972;SDS011;6551;51.056;9.466;2022-07-23T15:45:55;3.97;;;3.20;;
12972;SDS011;6551;51.056;9.466;2022-07-23T15:48:22;6.55;;;3.10;;
12972;SDS011;6551;51.056;9.466;2022-07-23T15:50:48;4.35;;;3.25;;